createdAt,value
2022-09-13T00:01:11.557Z,90.60
2022-09-13T00:03:40.887Z,90.60
2022-09-13T00:06:12.632Z,90.70
2022-09-13T00:08:41.986Z,90.70
2022-09-13T00:11:17.561Z,90.60
2022-09-13T00:13:46.752Z,90.70
2022-09-13T00:16:17.932Z,90.80
2022-09-13T00:18:47.159Z,90.80
2022-09-13T00:21:18.946Z,90.90
2022-09-13T00:23:48.622Z,90.90
2022-09-13T00:26:21.078Z,90.90
2022-09-13T00:28:52.769Z,90.90
2022-09-13T00:31:24.367Z,90.90
2022-09-13T00:33:53.736Z,90.80
2022-09-13T00:36:22.807Z,90.70
2022-09-13T00:38:51.782Z,90.60
2022-09-13T00:41:23.127Z,90.50
2022-09-13T00:43:54.899Z,90.80
2022-09-13T00:46:29.159Z,90.50
2022-09-13T00:49:03.281Z,90.60
2022-09-13T00:51:33.144Z,90.60
2022-09-13T00:54:05.064Z,90.70
2022-09-13T00:56:39.626Z,90.60
2022-09-13T00:59:11.830Z,90.60
2022-09-13T01:01:47.224Z,90.60
2022-09-13T01:04:17.219Z,90.30
2022-09-13T01:06:46.666Z,90.20
2022-09-13T01:09:15.970Z,90.70
2022-09-13T01:11:50.588Z,90.50
2022-09-13T01:14:21.193Z,90.60
2022-09-13T01:16:50.258Z,90.60
2022-09-13T01:19:19.224Z,90.50
2022-09-13T01:22:33.935Z,90.50
2022-09-13T01:25:44.251Z,90.50
2022-09-13T01:28:30.083Z,90.60
2022-09-13T01:31:06.865Z,90.70
2022-09-13T01:33:53.653Z,91.10
2022-09-13T01:37:12.840Z,91.10
2022-09-13T01:39:59.059Z,91.10
2022-09-13T01:42:39.068Z,91.20
2022-09-13T01:45:23.208Z,91.20
2022-09-13T01:47:58.674Z,91.60
2022-09-13T01:50:39.184Z,91.40
2022-09-13T01:53:20.349Z,91.50
2022-09-13T01:55:55.759Z,91.60
2022-09-13T01:58:29.958Z,91.60
2022-09-13T02:01:06.166Z,91.60
2022-09-13T02:03:41.211Z,91.50
2022-09-13T02:06:14.143Z,91.50
2022-09-13T02:08:46.682Z,91.50
2022-09-13T02:11:17.765Z,91.60
2022-09-13T02:13:52.046Z,91.60
2022-09-13T02:16:27.683Z,91.70
2022-09-13T02:19:02.307Z,91.80
2022-09-13T02:21:41.158Z,91.90
2022-09-13T02:24:12.804Z,91.90
2022-09-13T02:26:43.343Z,91.90
2022-09-13T02:29:17.209Z,92.00
2022-09-13T02:31:49.969Z,92.10
2022-09-13T02:34:24.662Z,92.10
2022-09-13T02:36:56.747Z,92.10
2022-09-13T02:39:28.626Z,92.20
2022-09-13T02:42:01.932Z,92.20
2022-09-13T02:44:35.448Z,92.20
2022-09-13T02:47:15.976Z,92.30
2022-09-13T02:49:54.420Z,92.30
2022-09-13T02:52:34.446Z,92.40
2022-09-13T02:55:13.777Z,92.50
2022-09-13T02:57:55.471Z,92.50
2022-09-13T03:00:24.807Z,92.60
2022-09-13T03:02:55.729Z,92.70
2022-09-13T03:05:26.030Z,92.80
2022-09-13T03:07:55.184Z,92.80
2022-09-13T03:10:24.525Z,92.80
2022-09-13T03:13:13.068Z,92.70
2022-09-13T03:15:55.945Z,92.60
2022-09-13T03:18:46.292Z,92.70
2022-09-13T03:21:29.982Z,92.70
2022-09-13T03:24:10.320Z,92.70
2022-09-13T03:26:45.938Z,92.70
2022-09-13T03:29:27.641Z,92.70
2022-09-13T03:32:17.928Z,92.80
2022-09-13T03:34:53.558Z,92.80
2022-09-13T03:37:29.766Z,92.80
2022-09-13T03:40:01.912Z,92.90
2022-09-13T03:42:35.471Z,92.90
2022-09-13T03:45:06.688Z,92.90
2022-09-13T03:47:38.743Z,92.90
2022-09-13T03:50:10.388Z,92.90
2022-09-13T03:52:45.836Z,93.00
2022-09-13T03:55:15.501Z,93.00
2022-09-13T03:57:44.345Z,93.00
2022-09-13T04:00:18.422Z,93.10
2022-09-13T04:02:47.494Z,93.00
2022-09-13T04:05:16.449Z,93.00
2022-09-13T04:07:46.739Z,93.00
2022-09-13T04:10:17.251Z,93.10
2022-09-13T04:12:46.076Z,93.20
2022-09-13T04:15:14.875Z,93.20
2022-09-13T04:17:43.691Z,93.10
2022-09-13T04:20:12.796Z,93.30
2022-09-13T04:22:42.382Z,93.40
2022-09-13T04:25:12.937Z,93.40
2022-09-13T04:27:41.906Z,93.50
2022-09-13T04:30:12.014Z,93.60
2022-09-13T04:32:42.432Z,93.70
2022-09-13T04:35:12.688Z,93.70
2022-09-13T04:37:41.548Z,93.80
2022-09-13T04:40:13.388Z,93.90
2022-09-13T04:42:42.495Z,93.90
2022-09-13T04:45:12.318Z,93.90
2022-09-13T04:47:41.252Z,93.90
2022-09-13T04:50:10.786Z,94.00
2022-09-13T04:52:39.713Z,94.10
2022-09-13T04:55:09.451Z,94.20
2022-09-13T04:57:40.548Z,94.40
2022-09-13T05:00:11.228Z,94.50
2022-09-13T05:02:39.993Z,94.60
2022-09-13T05:05:09.707Z,94.70
2022-09-13T05:07:38.608Z,94.70
2022-09-13T05:10:08.544Z,94.80
2022-09-13T05:12:38.941Z,94.80
2022-09-13T05:15:08.874Z,94.80
2022-09-13T05:17:37.769Z,94.80
2022-09-13T05:20:07.323Z,94.80
2022-09-13T05:22:36.187Z,94.70
2022-09-13T05:25:05.468Z,94.60
2022-09-13T05:27:34.295Z,94.60
2022-09-13T05:30:05.593Z,94.60
2022-09-13T05:32:34.622Z,94.50
2022-09-13T05:35:03.531Z,94.50
2022-09-13T05:37:32.781Z,94.50
2022-09-13T05:40:17.308Z,94.50
2022-09-13T05:42:47.086Z,94.50
2022-09-13T05:45:17.796Z,94.50
2022-09-13T05:47:46.892Z,94.50
2022-09-13T05:50:27.477Z,94.40
2022-09-13T05:53:02.037Z,94.40
2022-09-13T05:55:31.145Z,94.40
2022-09-13T05:58:00.010Z,94.40
2022-09-13T06:00:31.996Z,94.40
2022-09-13T06:03:00.951Z,94.40
2022-09-13T06:05:31.864Z,94.40
2022-09-13T06:08:01.022Z,94.30
2022-09-13T06:10:30.608Z,94.20
2022-09-13T06:12:59.461Z,94.10
2022-09-13T06:15:29.934Z,94.00
2022-09-13T06:17:58.843Z,93.80
2022-09-13T06:20:27.781Z,93.70
2022-09-13T06:22:56.661Z,93.50
2022-09-13T06:25:44.581Z,93.30
2022-09-13T06:28:13.435Z,93.10
2022-09-13T06:30:43.891Z,92.90
2022-09-13T06:33:12.801Z,92.70
2022-09-13T06:35:41.648Z,92.60
2022-09-13T06:38:10.458Z,92.40
2022-09-13T06:40:40.416Z,92.10
2022-09-13T06:43:09.493Z,91.90
2022-09-13T06:45:38.649Z,91.70
2022-09-13T06:48:09.056Z,91.70
2022-09-13T06:50:38.116Z,91.50
2022-09-13T06:53:07.445Z,91.20
2022-09-13T06:55:36.262Z,90.90
2022-09-13T06:58:05.066Z,90.70
2022-09-13T07:00:33.982Z,90.40
2022-09-13T07:03:02.997Z,90.40
2022-09-13T07:05:33.362Z,90.40
2022-09-13T07:08:02.360Z,90.30
2022-09-13T07:10:32.439Z,90.20
2022-09-13T07:13:04.145Z,90.00
2022-09-13T07:15:33.143Z,89.80
2022-09-13T07:18:02.342Z,89.50
2022-09-13T07:20:32.863Z,89.20
2022-09-13T07:23:02.159Z,88.90
2022-09-13T07:25:31.010Z,88.40
2022-09-13T07:27:59.893Z,87.90
2022-09-13T07:30:28.924Z,87.50
2022-09-13T07:32:57.745Z,87.00
2022-09-13T07:35:26.679Z,86.70
2022-09-13T07:37:56.868Z,86.50
2022-09-13T07:40:25.854Z,86.10
2022-09-13T07:42:54.755Z,85.80
2022-09-13T07:45:24.034Z,85.50
2022-09-13T07:47:55.022Z,85.00
2022-09-13T07:50:42.553Z,84.60
2022-09-13T07:53:13.175Z,84.30
2022-09-13T07:55:42.186Z,84.20
2022-09-13T07:58:11.042Z,83.90
2022-09-13T08:00:39.829Z,83.40
2022-09-13T08:03:10.111Z,82.40
2022-09-13T08:05:41.650Z,81.40
2022-09-13T08:08:12.158Z,80.70
2022-09-13T08:10:41.050Z,80.10
2022-09-13T08:13:10.419Z,79.20
2022-09-13T08:15:39.449Z,78.60
2022-09-13T08:18:09.888Z,78.30
2022-09-13T08:20:39.080Z,77.60
2022-09-13T08:23:09.013Z,77.30
2022-09-13T08:25:40.109Z,77.00
2022-09-13T08:28:10.991Z,76.70
2022-09-13T08:30:58.246Z,75.70
2022-09-13T08:33:27.362Z,75.40
2022-09-13T08:35:58.408Z,74.10
2022-09-13T08:38:27.512Z,73.90
2022-09-13T08:40:59.797Z,73.60
2022-09-13T08:43:39.993Z,73.10
2022-09-13T08:46:13.966Z,72.80
2022-09-13T08:48:45.755Z,72.50
2022-09-13T08:51:30.749Z,71.60
2022-09-13T08:53:59.665Z,70.90
2022-09-13T08:56:33.672Z,70.50
2022-09-13T08:59:07.604Z,70.10
2022-09-13T09:01:42.241Z,69.30
2022-09-13T09:04:15.589Z,69.00
2022-09-13T09:06:44.243Z,68.10
2022-09-13T09:09:16.243Z,67.50
2022-09-13T09:11:50.827Z,66.80
2022-09-13T09:14:23.327Z,65.50
2022-09-13T09:16:54.220Z,64.30
2022-09-13T09:19:27.312Z,63.60
2022-09-13T09:21:55.844Z,63.20
2022-09-13T09:24:25.479Z,63.10
2022-09-13T09:26:58.442Z,63.40
2022-09-13T09:29:29.131Z,63.30
2022-09-13T09:32:01.177Z,62.90
2022-09-13T09:34:42.829Z,62.30
2022-09-13T09:37:17.483Z,61.90
2022-09-13T09:39:46.609Z,61.90
2022-09-13T09:42:17.689Z,61.90
2022-09-13T09:44:49.831Z,61.90
2022-09-13T09:47:20.577Z,61.80
2022-09-13T09:50:06.915Z,61.10
2022-09-13T09:52:42.080Z,60.40
2022-09-13T09:55:17.724Z,59.80
2022-09-13T09:57:54.844Z,59.50
2022-09-13T10:00:26.112Z,59.80
2022-09-13T10:02:57.039Z,60.00
2022-09-13T10:05:27.824Z,59.60
2022-09-13T10:07:58.033Z,58.80
2022-09-13T10:10:28.283Z,58.40
2022-09-13T10:12:59.851Z,58.00
2022-09-13T10:15:58.295Z,58.30
2022-09-13T10:18:43.554Z,58.40
2022-09-13T10:21:23.338Z,58.20
2022-09-13T10:23:52.311Z,57.40
2022-09-13T10:26:21.700Z,57.20
2022-09-13T10:28:57.330Z,56.80
2022-09-13T10:31:29.901Z,56.40
2022-09-13T10:33:59.542Z,55.50
2022-09-13T10:36:51.062Z,53.70
2022-09-13T10:39:21.525Z,52.50
2022-09-13T10:41:51.426Z,52.50
2022-09-13T10:44:27.773Z,52.40
2022-09-13T10:46:56.540Z,51.90
2022-09-13T10:49:42.347Z,51.30
2022-09-13T10:52:31.136Z,50.90
2022-09-13T10:55:18.869Z,50.30
2022-09-13T10:57:47.850Z,50.00
2022-09-13T11:00:19.390Z,50.90
2022-09-13T11:02:55.748Z,50.90
2022-09-13T11:05:26.577Z,51.30
2022-09-13T11:08:07.865Z,52.10
2022-09-13T11:10:38.501Z,53.70
2022-09-13T11:13:09.013Z,53.40
2022-09-13T11:15:46.070Z,52.80
2022-09-13T11:18:32.005Z,52.40
2022-09-13T11:21:04.345Z,52.10
2022-09-13T11:23:38.860Z,51.60
2022-09-13T11:26:17.455Z,50.90
2022-09-13T11:28:50.987Z,50.50
2022-09-13T11:31:31.097Z,50.00
2022-09-13T11:34:06.945Z,49.10
2022-09-13T11:36:48.544Z,48.50
2022-09-13T11:39:21.013Z,48.00
2022-09-13T11:41:55.319Z,47.60
2022-09-13T11:44:37.315Z,47.30
2022-09-13T11:47:11.830Z,47.00
2022-09-13T11:50:03.109Z,46.70
2022-09-13T11:52:36.782Z,46.50
2022-09-13T11:55:13.759Z,45.90
2022-09-13T11:57:44.002Z,45.50
2022-09-13T12:00:17.179Z,44.90
2022-09-13T12:02:50.824Z,44.80
2022-09-13T12:05:23.611Z,44.70
2022-09-13T12:07:53.975Z,44.70
2022-09-13T12:10:26.394Z,44.80
2022-09-13T12:12:56.929Z,45.10
2022-09-13T12:15:38.693Z,45.10
2022-09-13T12:18:16.775Z,45.40
2022-09-13T12:20:56.049Z,45.60
2022-09-13T12:23:29.783Z,45.70
2022-09-13T12:26:01.873Z,45.70
2022-09-13T12:28:36.757Z,45.90
2022-09-13T12:31:08.152Z,46.20
2022-09-13T12:33:41.549Z,46.50
2022-09-13T12:36:22.623Z,46.90
2022-09-13T12:39:19.608Z,47.80
2022-09-13T12:41:52.401Z,48.30
2022-09-13T12:44:33.759Z,48.30
2022-09-13T12:47:13.904Z,48.20
2022-09-13T12:49:50.515Z,48.00
2022-09-13T12:52:25.177Z,48.20
2022-09-13T12:55:19.737Z,48.30
2022-09-13T12:58:01.559Z,48.40
2022-09-13T13:00:34.860Z,48.50
2022-09-13T13:03:11.935Z,48.30
2022-09-13T13:05:44.854Z,48.10
2022-09-13T13:08:29.607Z,48.10
2022-09-13T13:11:03.687Z,47.90
2022-09-13T13:13:35.560Z,47.70
2022-09-13T13:16:09.457Z,48.10
2022-09-13T13:18:48.653Z,47.70
2022-09-13T13:21:27.772Z,47.60
2022-09-13T13:24:14.990Z,47.50
2022-09-13T13:26:47.591Z,47.50
2022-09-13T13:29:18.136Z,47.20
2022-09-13T13:31:48.228Z,47.20
2022-09-13T13:34:35.321Z,46.90
2022-09-13T13:37:06.512Z,46.80
2022-09-13T13:39:42.069Z,46.90
2022-09-13T13:42:27.519Z,47.10
2022-09-13T13:45:06.631Z,47.50
2022-09-13T13:47:59.696Z,47.80
2022-09-13T13:50:28.426Z,48.20
2022-09-13T13:53:06.117Z,48.40
2022-09-13T13:55:45.975Z,48.70
2022-09-13T13:58:32.690Z,49.00
2022-09-13T14:01:03.464Z,49.30
2022-09-13T14:03:38.428Z,49.60
2022-09-13T14:06:11.825Z,49.90
2022-09-13T14:08:47.746Z,50.00
2022-09-13T14:11:33.857Z,50.30
2022-09-13T14:14:15.143Z,50.70
2022-09-13T14:17:02.307Z,51.40
2022-09-13T14:19:41.051Z,51.90
2022-09-13T14:22:20.552Z,52.40
2022-09-13T14:25:06.015Z,52.80
2022-09-13T14:27:41.433Z,53.10
2022-09-13T14:30:19.373Z,54.20
2022-09-13T14:33:03.774Z,54.00
2022-09-13T14:35:47.219Z,54.50
2022-09-13T14:38:23.012Z,54.70
2022-09-13T14:41:03.054Z,54.90
2022-09-13T14:43:37.887Z,55.10
2022-09-13T14:46:07.985Z,55.20
2022-09-13T14:48:40.240Z,55.40
2022-09-13T14:51:13.857Z,55.60
2022-09-13T14:53:44.869Z,55.50
2022-09-13T14:56:17.553Z,55.50
2022-09-13T14:58:47.984Z,55.60
2022-09-13T15:01:17.718Z,55.60
2022-09-13T15:03:46.901Z,55.60
2022-09-13T15:06:23.187Z,55.70
2022-09-13T15:08:52.688Z,55.60
2022-09-13T15:11:34.644Z,55.90
2022-09-13T15:14:24.700Z,56.10
2022-09-13T15:16:53.875Z,56.30
2022-09-13T15:19:33.170Z,56.40
2022-09-13T15:22:13.480Z,56.50
2022-09-13T15:24:45.189Z,56.60
2022-09-13T15:27:22.805Z,56.80
2022-09-13T15:29:52.437Z,56.90
2022-09-13T15:32:22.665Z,57.30
2022-09-13T15:34:51.380Z,57.90
2022-09-13T15:37:29.628Z,58.20
2022-09-13T15:40:12.907Z,58.60
2022-09-13T15:42:46.132Z,59.30
2022-09-13T15:45:14.867Z,59.70
2022-09-13T15:47:45.956Z,60.10
2022-09-13T15:50:20.933Z,60.70
2022-09-13T15:52:49.550Z,60.90
2022-09-13T15:55:18.082Z,61.30
2022-09-13T15:57:48.309Z,61.60
2022-09-13T16:00:18.337Z,62.70
2022-09-13T16:02:49.016Z,63.20
2022-09-13T16:05:23.705Z,63.30
2022-09-13T16:07:55.683Z,63.60
2022-09-13T16:10:24.855Z,64.00
2022-09-13T16:12:54.995Z,64.20
2022-09-13T16:15:23.700Z,64.30
2022-09-13T16:17:52.332Z,65.40
2022-09-13T16:20:21.227Z,65.70
2022-09-13T16:22:51.071Z,65.70
2022-09-13T16:25:20.889Z,66.00
2022-09-13T16:27:50.418Z,66.60
2022-09-13T16:30:22.412Z,66.80
2022-09-13T16:32:51.380Z,67.00
2022-09-13T16:35:20.031Z,67.40
2022-09-13T16:37:51.733Z,67.50
2022-09-13T16:40:20.562Z,67.40
2022-09-13T16:42:49.218Z,67.80
2022-09-13T16:45:18.199Z,68.00
2022-09-13T16:47:48.459Z,68.10
2022-09-13T16:50:17.193Z,68.10
2022-09-13T16:52:45.772Z,68.40
2022-09-13T16:55:14.322Z,68.50
2022-09-13T16:57:44.873Z,68.40
2022-09-13T17:00:32.104Z,68.40
2022-09-13T17:03:02.364Z,68.60
2022-09-13T17:05:31.216Z,68.90
2022-09-13T17:07:59.661Z,68.90
2022-09-13T17:10:29.118Z,68.90
2022-09-13T17:12:57.709Z,69.00
2022-09-13T17:15:26.381Z,69.10
2022-09-13T17:17:54.921Z,69.10
2022-09-13T17:20:24.858Z,69.40
2022-09-13T17:22:54.395Z,69.40
2022-09-13T17:25:23.223Z,69.40
2022-09-13T17:27:51.942Z,69.50
2022-09-13T17:30:20.557Z,69.70
2022-09-13T17:32:49.191Z,69.70
2022-09-13T17:35:18.079Z,69.80
2022-09-13T17:37:48.107Z,69.90
2022-09-13T17:40:16.733Z,69.90
2022-09-13T17:42:45.427Z,70.10
2022-09-13T17:45:13.983Z,70.20
2022-09-13T17:47:42.523Z,70.30
2022-09-13T17:50:11.283Z,70.50
2022-09-13T17:52:39.763Z,70.80
2022-09-13T17:55:09.931Z,71.00
2022-09-13T17:57:56.929Z,71.30
2022-09-13T18:00:25.457Z,71.40
2022-09-13T18:03:12.848Z,71.60
2022-09-13T18:05:41.428Z,71.60
2022-09-13T18:08:10.126Z,71.80
2022-09-13T18:11:03.811Z,72.10
2022-09-13T18:13:28.742Z,72.40
2022-09-13T18:16:01.105Z,72.70
2022-09-13T18:18:30.018Z,73.00
2022-09-13T18:20:58.799Z,73.20
2022-09-13T18:23:28.852Z,73.30
2022-09-13T18:26:02.623Z,73.50
2022-09-13T18:28:33.169Z,73.60
2022-09-13T18:31:05.940Z,73.80
2022-09-13T18:33:34.784Z,74.10
2022-09-13T18:36:04.237Z,74.20
2022-09-13T18:38:33.825Z,74.20
2022-09-13T18:41:05.268Z,74.30
2022-09-13T18:43:34.404Z,74.30
2022-09-13T18:46:05.456Z,74.20
2022-09-13T18:48:35.377Z,74.00
2022-09-13T18:51:04.600Z,74.00
2022-09-13T18:53:35.296Z,74.00
2022-09-13T18:56:07.411Z,74.20
2022-09-13T18:58:37.290Z,74.50
2022-09-13T19:01:07.147Z,74.70
2022-09-13T19:03:36.412Z,75.10
2022-09-13T19:06:12.764Z,75.20
2022-09-13T19:08:42.560Z,75.30
2022-09-13T19:11:35.292Z,75.40
2022-09-13T19:14:02.699Z,75.40
2022-09-13T19:16:31.451Z,75.50
2022-09-13T19:19:00.185Z,75.50
2022-09-13T19:21:29.713Z,75.50
2022-09-13T19:24:04.024Z,75.60
2022-09-13T19:26:38.594Z,75.50
2022-09-13T19:29:08.683Z,75.60
2022-09-13T19:31:38.792Z,75.80
2022-09-13T19:34:07.896Z,75.80
2022-09-13T19:36:37.220Z,75.80
2022-09-13T19:39:06.585Z,76.00
2022-09-13T19:41:36.849Z,76.20
2022-09-13T19:44:05.602Z,76.20
2022-09-13T19:46:34.843Z,76.20
2022-09-13T19:49:03.743Z,76.40
2022-09-13T19:51:33.384Z,76.50
2022-09-13T19:54:20.865Z,76.70
2022-09-13T19:56:51.357Z,76.70
2022-09-13T19:59:21.196Z,76.90
2022-09-13T20:01:49.989Z,77.00
2022-09-13T20:04:19.531Z,77.20
2022-09-13T20:06:49.806Z,77.30
2022-09-13T20:09:19.590Z,77.50
2022-09-13T20:11:48.929Z,77.70
2022-09-13T20:14:19.846Z,77.80
2022-09-13T20:16:48.536Z,77.90
2022-09-13T20:22:09.600Z,77.70
2022-09-13T20:24:38.521Z,77.70
2022-09-13T20:27:07.311Z,77.80
2022-09-13T20:29:37.160Z,77.60
2022-09-13T20:32:05.721Z,77.80
2022-09-13T20:34:35.294Z,77.90
2022-09-13T20:37:03.903Z,78.20
2022-09-13T20:39:32.728Z,78.20
2022-09-13T20:42:01.405Z,78.30
2022-09-13T20:44:29.978Z,78.30
2022-09-13T20:47:00.415Z,78.30
2022-09-13T20:49:29.557Z,78.30
2022-09-13T20:51:58.123Z,78.20
2022-09-13T20:54:26.733Z,78.10
2022-09-13T20:56:55.278Z,78.10
2022-09-13T20:59:23.900Z,78.20
2022-09-13T21:01:52.425Z,78.30
2022-09-13T21:04:23.149Z,78.30
2022-09-13T21:07:14.726Z,78.20
2022-09-13T21:09:44.108Z,78.20
2022-09-13T21:12:12.581Z,78.10
2022-09-13T21:14:41.095Z,78.00
2022-09-13T21:17:09.913Z,77.80
2022-09-13T21:19:39.898Z,78.20
2022-09-13T21:22:08.416Z,77.60
2022-09-13T21:24:37.361Z,77.40
2022-09-13T21:27:05.908Z,77.50
2022-09-13T21:29:34.715Z,77.50
2022-09-13T21:32:03.711Z,77.60
2022-09-13T21:34:33.447Z,77.60
2022-09-13T21:37:03.474Z,77.80
2022-09-13T21:39:32.511Z,77.90
2022-09-13T21:42:01.412Z,78.00
2022-09-13T21:44:31.028Z,78.20
2022-09-13T21:47:17.934Z,78.20
2022-09-13T21:49:46.402Z,78.40
2022-09-13T21:52:16.824Z,78.60
2022-09-13T21:54:45.429Z,78.60
2022-09-13T21:57:14.267Z,79.30
2022-09-13T21:59:42.805Z,78.70
2022-09-13T22:02:12.014Z,78.80
2022-09-13T22:04:59.164Z,78.90
2022-09-13T22:07:29.149Z,79.20
2022-09-13T22:09:57.817Z,79.40
2022-09-13T22:12:26.344Z,79.70
2022-09-13T22:14:58.438Z,79.80
2022-09-13T22:17:27.223Z,79.90
2022-09-13T22:19:55.946Z,79.40
2022-09-13T22:22:24.415Z,79.40
2022-09-13T22:24:54.342Z,79.40
2022-09-13T22:27:23.476Z,79.50
2022-09-13T22:29:51.929Z,79.80
2022-09-13T22:32:23.558Z,80.00
2022-09-13T22:34:53.084Z,80.20
2022-09-13T22:37:21.555Z,80.60
2022-09-13T22:39:50.154Z,81.00
2022-09-13T22:42:20.155Z,81.20
2022-09-13T22:44:48.777Z,81.60
2022-09-13T22:47:17.371Z,81.80
2022-09-13T22:49:45.994Z,82.00
2022-09-13T22:52:14.629Z,82.00
2022-09-13T22:54:43.617Z,82.20
2022-09-13T22:57:12.331Z,82.30
2022-09-13T22:59:42.203Z,82.40
2022-09-13T23:02:11.070Z,82.60
2022-09-13T23:04:39.472Z,82.70
2022-09-13T23:07:07.922Z,82.80
2022-09-13T23:09:36.668Z,82.90
2022-09-13T23:12:05.246Z,82.90
2022-09-13T23:14:33.671Z,83.20
2022-09-13T23:17:03.628Z,83.30
2022-09-13T23:19:50.574Z,83.40
2022-09-13T23:22:19.219Z,83.60
2022-09-13T23:24:47.738Z,83.80
2022-09-13T23:27:16.224Z,84.00
2022-09-13T23:29:44.740Z,84.30
2022-09-13T23:32:14.919Z,84.50
2022-09-13T23:34:43.559Z,84.80
2022-09-13T23:37:12.024Z,85.10
2022-09-13T23:39:40.616Z,85.10
2022-09-13T23:42:09.472Z,85.20
2022-09-13T23:44:37.923Z,85.40
2022-09-13T23:47:06.427Z,85.40
2022-09-13T23:49:36.897Z,85.30
2022-09-13T23:52:05.489Z,85.30
2022-09-13T23:54:33.890Z,85.20
2022-09-13T23:57:02.468Z,84.80
2022-09-13T23:59:30.989Z,84.70
